createdAt,value
2019-04-26T00:01:05.261Z,36.99
2019-04-26T00:03:33.296Z,37.04
2019-04-26T00:05:59.477Z,37.11
2019-04-26T00:08:25.465Z,37.15
2019-04-26T00:10:59.312Z,37.08
2019-04-26T00:13:44.896Z,37.04
2019-04-26T00:16:12.796Z,37.04
2019-04-26T00:18:39.541Z,37.16
2019-04-26T00:21:05.754Z,37.52
2019-04-26T00:23:31.950Z,37.52
2019-04-26T00:25:58.122Z,37.53
2019-04-26T00:28:24.013Z,37.55
2019-04-26T00:30:49.945Z,37.63
2019-04-26T00:33:15.915Z,37.78
2019-04-26T00:35:47.741Z,37.89
2019-04-26T00:38:09.675Z,37.98
2019-04-26T00:40:35.982Z,37.94
2019-04-26T00:43:02.070Z,37.73
2019-04-26T00:45:29.767Z,37.75
2019-04-26T00:47:56.853Z,37.82
2019-04-26T00:50:23.312Z,37.77
2019-04-26T00:52:50.079Z,37.81
2019-04-26T00:55:16.105Z,37.94
2019-04-26T00:57:42.381Z,37.99
2019-04-26T01:00:10.372Z,38.17
2019-04-26T01:02:38.274Z,38.07
2019-04-26T01:05:04.562Z,38.20
2019-04-26T01:07:30.472Z,38.17
2019-04-26T01:09:56.474Z,38.10
2019-04-26T01:12:22.594Z,38.08
2019-04-26T01:14:48.506Z,38.11
2019-04-26T01:17:14.502Z,38.19
2019-04-26T01:19:41.676Z,38.24
2019-04-26T01:22:09.689Z,38.22
2019-04-26T01:24:37.637Z,38.24
2019-04-26T01:27:04.225Z,38.38
2019-04-26T01:29:30.536Z,38.40
2019-04-26T01:32:10.508Z,38.45
2019-04-26T01:34:38.327Z,38.54
2019-04-26T01:37:04.400Z,38.57
2019-04-26T01:39:30.494Z,38.63
2019-04-26T01:41:58.402Z,38.51
2019-04-26T01:44:37.057Z,38.51
2019-04-26T01:47:03.279Z,38.60
2019-04-26T01:49:29.255Z,38.54
2019-04-26T01:51:57.060Z,38.60
2019-04-26T01:54:25.788Z,38.49
2019-04-26T01:56:53.540Z,38.44
2019-04-26T01:59:21.000Z,38.49
2019-04-26T02:02:07.856Z,38.54
2019-04-26T02:04:35.742Z,38.74
2019-04-26T02:07:01.929Z,38.91
2019-04-26T02:09:28.431Z,38.66
2019-04-26T02:11:54.550Z,38.73
2019-04-26T02:14:20.523Z,39.02
2019-04-26T02:16:46.949Z,38.94
2019-04-26T02:19:12.942Z,38.85
2019-04-26T02:21:40.824Z,38.92
2019-04-26T02:24:14.609Z,38.89
2019-04-26T02:26:43.451Z,38.81
2019-04-26T02:29:11.214Z,38.98
2019-04-26T02:31:38.631Z,39.12
2019-04-26T02:34:04.719Z,39.18
2019-04-26T02:36:47.927Z,38.96
2019-04-26T02:39:00.386Z,38.92
2019-04-26T02:41:28.130Z,38.98
2019-04-26T02:43:55.902Z,39.01
2019-04-26T02:46:28.422Z,39.03
2019-04-26T02:49:00.229Z,39.06
2019-04-26T02:51:29.127Z,39.35
2019-04-26T02:54:00.787Z,39.21
2019-04-26T02:56:32.237Z,39.33
2019-04-26T02:59:01.042Z,39.35
2019-04-26T03:01:29.334Z,39.43
2019-04-26T03:03:55.386Z,39.51
2019-04-26T03:06:21.856Z,39.69
2019-04-26T03:08:48.632Z,39.63
2019-04-26T03:11:17.397Z,39.42
2019-04-26T03:13:53.362Z,39.32
2019-04-26T03:16:41.507Z,39.33
2019-04-26T03:19:23.269Z,39.45
2019-04-26T03:21:51.027Z,39.37
2019-04-26T03:24:37.204Z,39.63
2019-04-26T03:27:23.311Z,39.64
2019-04-26T03:30:16.321Z,39.59
2019-04-26T03:32:26.698Z,39.42
2019-04-26T03:34:56.415Z,39.41
2019-04-26T03:37:28.886Z,39.68
2019-04-26T03:40:04.176Z,39.66
2019-04-26T03:42:33.182Z,39.50
2019-04-26T03:45:13.701Z,39.51
2019-04-26T03:47:47.244Z,39.60
2019-04-26T03:50:15.016Z,39.57
2019-04-26T03:52:44.098Z,39.51
2019-04-26T03:55:24.930Z,39.53
2019-04-26T03:58:03.463Z,39.46
2019-04-26T04:00:32.675Z,39.53
2019-04-26T04:03:02.333Z,39.57
2019-04-26T04:05:35.987Z,39.59
2019-04-26T04:08:04.200Z,39.59
2019-04-26T04:10:41.935Z,39.81
2019-04-26T04:13:15.315Z,39.92
2019-04-26T04:15:44.685Z,40.03
2019-04-26T04:18:21.051Z,40.42
2019-04-26T04:21:10.300Z,40.23
2019-04-26T04:23:41.835Z,40.54
2019-04-26T04:26:10.429Z,40.40
2019-04-26T04:28:40.036Z,40.35
2019-04-26T04:31:13.778Z,40.34
2019-04-26T04:33:50.503Z,40.50
2019-04-26T04:36:21.005Z,40.46
2019-04-26T04:39:10.808Z,40.34
2019-04-26T04:41:38.423Z,40.29
2019-04-26T04:44:11.067Z,40.33
2019-04-26T04:46:51.886Z,40.35
2019-04-26T04:49:41.121Z,40.36
2019-04-26T04:52:11.933Z,40.30
2019-04-26T04:54:39.692Z,40.18
2019-04-26T04:57:07.460Z,40.15
2019-04-26T04:59:50.555Z,40.11
2019-04-26T05:02:35.221Z,40.15
2019-04-26T05:05:16.796Z,40.02
2019-04-26T05:08:06.794Z,40.05
2019-04-26T05:10:47.662Z,40.02
2019-04-26T05:13:18.405Z,40.03
2019-04-26T05:15:50.888Z,40.03
2019-04-26T05:18:35.029Z,39.89
2019-04-26T05:21:02.934Z,39.78
2019-04-26T05:23:47.151Z,39.84
2019-04-26T05:26:25.601Z,39.70
2019-04-26T05:29:15.378Z,39.62
2019-04-26T05:31:45.816Z,39.45
2019-04-26T05:34:26.846Z,39.47
2019-04-26T05:37:11.402Z,39.38
2019-04-26T05:39:57.435Z,39.34
2019-04-26T05:42:27.174Z,39.21
2019-04-26T05:45:19.593Z,39.22
2019-04-26T05:48:11.496Z,39.17
2019-04-26T05:50:55.827Z,39.04
2019-04-26T05:53:34.531Z,38.89
2019-04-26T05:56:22.133Z,38.85
2019-04-26T05:58:52.938Z,38.81
2019-04-26T06:01:25.740Z,38.75
2019-04-26T06:04:17.355Z,38.74
2019-04-26T06:07:03.684Z,38.71
2019-04-26T06:09:58.585Z,38.69
2019-04-26T06:12:34.351Z,38.53
2019-04-26T06:15:04.079Z,38.96
2019-04-26T06:18:02.675Z,38.64
2019-04-26T06:20:36.866Z,38.58
2019-04-26T06:23:13.402Z,38.63
2019-04-26T06:25:52.149Z,38.59
2019-04-26T06:28:22.885Z,38.60
2019-04-26T06:30:50.672Z,38.87
2019-04-26T06:33:30.840Z,38.84
2019-04-26T06:35:59.350Z,38.62
2019-04-26T06:38:44.060Z,38.66
2019-04-26T06:41:10.552Z,38.47
2019-04-26T06:43:40.214Z,38.48
2019-04-26T06:46:28.388Z,38.67
2019-04-26T06:49:29.872Z,38.49
2019-04-26T06:51:58.466Z,38.33
2019-04-26T06:54:32.516Z,38.21
2019-04-26T06:57:17.437Z,38.36
2019-04-26T06:59:51.264Z,38.29
2019-04-26T07:02:19.040Z,38.11
2019-04-26T07:05:03.493Z,38.18
2019-04-26T07:07:48.458Z,38.09
2019-04-26T07:10:21.977Z,38.02
2019-04-26T07:12:51.673Z,38.05
2019-04-26T07:15:35.957Z,37.94
2019-04-26T07:18:10.663Z,37.83
2019-04-26T07:20:42.950Z,37.86
2019-04-26T07:23:24.639Z,37.87
2019-04-26T07:25:59.176Z,37.72
2019-04-26T07:28:47.470Z,37.69
2019-04-26T07:31:31.897Z,37.59
2019-04-26T07:34:07.357Z,37.66
2019-04-26T07:36:50.312Z,37.56
2019-04-26T07:39:31.743Z,37.43
2019-04-26T07:42:10.243Z,37.41
2019-04-26T07:44:51.371Z,37.42
2019-04-26T07:47:31.144Z,37.36
2019-04-26T07:49:58.889Z,37.27
2019-04-26T07:52:29.716Z,37.14
2019-04-26T07:55:14.256Z,37.08
2019-04-26T07:57:58.402Z,37.03
2019-04-26T08:00:28.061Z,36.93
2019-04-26T08:03:04.179Z,36.91
2019-04-26T08:05:47.198Z,36.88
2019-04-26T08:08:15.069Z,36.82
2019-04-26T08:10:42.836Z,36.76
2019-04-26T08:13:13.424Z,36.70
2019-04-26T08:15:42.869Z,36.67
2019-04-26T08:18:21.562Z,36.59
2019-04-26T08:20:50.053Z,36.53
2019-04-26T08:23:37.953Z,36.48
2019-04-26T08:25:47.384Z,36.45
2019-04-26T08:28:15.168Z,36.38
2019-04-26T08:30:44.857Z,36.29
2019-04-26T08:33:14.520Z,36.26
2019-04-26T08:35:44.484Z,36.19
2019-04-26T08:38:16.432Z,36.17
2019-04-26T08:40:39.618Z,36.16
2019-04-26T08:43:27.281Z,36.04
2019-04-26T08:46:03.269Z,36.05
2019-04-26T08:48:31.074Z,35.92
2019-04-26T08:51:00.485Z,35.93
2019-04-26T08:53:27.983Z,35.89
2019-04-26T08:55:55.207Z,35.81
2019-04-26T08:58:22.959Z,35.67
2019-04-26T09:00:58.617Z,35.62
2019-04-26T09:03:36.905Z,35.65
2019-04-26T09:06:20.254Z,35.52
2019-04-26T09:08:47.609Z,35.53
2019-04-26T09:11:25.501Z,35.46
2019-04-26T09:13:44.945Z,35.43
2019-04-26T09:16:12.638Z,35.39
2019-04-26T09:18:43.706Z,35.23
2019-04-26T09:21:06.574Z,35.24
2019-04-26T09:23:52.017Z,35.28
2019-04-26T09:26:36.645Z,35.21
2019-04-26T09:29:22.679Z,35.05
2019-04-26T09:32:02.608Z,34.97
2019-04-26T09:34:41.293Z,34.96
2019-04-26T09:37:07.296Z,34.31
2019-04-26T09:39:33.275Z,33.78
2019-04-26T09:42:04.753Z,33.47
2019-04-26T09:44:30.718Z,33.04
2019-04-26T09:47:04.377Z,32.80
2019-04-26T09:49:32.125Z,32.63
2019-04-26T09:51:58.266Z,32.14
2019-04-26T09:54:24.192Z,32.35
2019-04-26T09:56:50.146Z,32.22
2019-04-26T09:59:16.123Z,31.45
2019-04-26T10:01:42.091Z,31.82
2019-04-26T10:04:07.938Z,32.03
2019-04-26T10:06:33.829Z,31.91
2019-04-26T10:08:59.829Z,31.51
2019-04-26T10:11:27.786Z,31.17
2019-04-26T10:13:58.200Z,31.39
2019-04-26T10:16:26.016Z,30.57
2019-04-26T10:18:54.513Z,30.89
2019-04-26T10:21:20.465Z,30.61
2019-04-26T10:23:46.407Z,30.52
2019-04-26T10:26:12.384Z,30.97
2019-04-26T10:28:38.290Z,30.62
2019-04-26T10:31:04.346Z,30.44
2019-04-26T10:33:32.626Z,30.52
2019-04-26T10:35:58.157Z,29.94
2019-04-26T10:38:25.439Z,30.16
2019-04-26T10:40:51.477Z,30.48
2019-04-26T10:43:17.470Z,30.34
2019-04-26T10:45:45.903Z,29.44
2019-04-26T10:48:13.912Z,29.48
2019-04-26T10:50:38.884Z,29.95
2019-04-26T10:53:15.336Z,29.67
2019-04-26T10:55:46.375Z,29.30
2019-04-26T10:58:22.435Z,28.96
2019-04-26T11:00:52.623Z,28.90
2019-04-26T11:03:18.261Z,28.70
2019-04-26T11:05:44.235Z,29.15
2019-04-26T11:08:10.141Z,28.95
2019-04-26T11:10:47.906Z,29.37
2019-04-26T11:13:04.028Z,28.42
2019-04-26T11:15:32.735Z,28.59
2019-04-26T11:17:57.825Z,27.48
2019-04-26T11:20:23.715Z,28.06
2019-04-26T11:22:49.707Z,28.50
2019-04-26T11:25:15.573Z,28.74
2019-04-26T11:27:44.306Z,28.58
2019-04-26T11:30:12.268Z,28.16
2019-04-26T11:32:38.259Z,27.90
2019-04-26T11:35:04.418Z,27.82
2019-04-26T11:37:30.586Z,27.68
2019-04-26T11:39:56.516Z,27.58
2019-04-26T11:42:22.411Z,27.34
2019-04-26T11:44:48.265Z,27.54
2019-04-26T11:47:14.143Z,26.37
2019-04-26T11:49:41.496Z,25.75
2019-04-26T11:52:07.808Z,25.28
2019-04-26T11:54:33.770Z,26.16
2019-04-26T11:56:59.821Z,25.52
2019-04-26T11:59:27.109Z,26.11
2019-04-26T12:01:53.510Z,26.08
2019-04-26T12:04:21.298Z,26.10
2019-04-26T12:06:54.950Z,26.65
2019-04-26T12:09:22.831Z,26.66
2019-04-26T12:11:50.916Z,25.81
2019-04-26T12:14:20.449Z,26.27
2019-04-26T12:16:49.528Z,26.02
2019-04-26T12:19:14.316Z,24.16
2019-04-26T12:21:39.745Z,25.00
2019-04-26T12:24:05.744Z,25.71
2019-04-26T12:26:42.318Z,23.26
2019-04-26T12:28:59.431Z,23.88
2019-04-26T12:31:25.400Z,23.91
2019-04-26T12:33:51.270Z,24.02
2019-04-26T12:36:17.214Z,24.60
2019-04-26T12:38:43.342Z,24.31
2019-04-26T12:41:11.415Z,24.41
2019-04-26T12:43:37.178Z,24.34
2019-04-26T12:46:07.656Z,24.20
2019-04-26T12:48:33.809Z,24.41
2019-04-26T12:50:59.781Z,24.23
2019-04-26T12:53:26.731Z,23.87
2019-04-26T12:55:58.039Z,24.04
2019-04-26T12:58:21.134Z,23.91
2019-04-26T13:00:53.916Z,24.08
2019-04-26T13:03:20.424Z,23.18
2019-04-26T13:05:43.204Z,23.82
2019-04-26T13:08:09.174Z,22.86
2019-04-26T13:10:53.302Z,23.03
2019-04-26T13:13:21.156Z,23.26
2019-04-26T13:15:55.103Z,23.41
2019-04-26T13:18:20.983Z,23.15
2019-04-26T13:20:46.961Z,22.60
2019-04-26T13:23:12.822Z,22.91
2019-04-26T13:25:40.521Z,22.40
2019-04-26T13:28:06.566Z,22.62
2019-04-26T13:30:33.194Z,22.78
2019-04-26T13:32:59.136Z,22.90
2019-04-26T13:35:25.060Z,22.92
2019-04-26T13:37:50.903Z,22.68
2019-04-26T13:40:16.916Z,22.59
2019-04-26T13:42:42.796Z,23.16
2019-04-26T13:45:13.473Z,22.77
2019-04-26T13:47:57.752Z,22.53
2019-04-26T13:50:26.562Z,22.52
2019-04-26T13:52:53.459Z,23.25
2019-04-26T13:55:19.465Z,22.41
2019-04-26T13:57:46.139Z,22.93
2019-04-26T14:00:14.112Z,23.13
2019-04-26T14:02:40.162Z,23.35
2019-04-26T14:05:06.056Z,23.12
2019-04-26T14:07:32.030Z,22.91
2019-04-26T14:09:57.938Z,23.40
2019-04-26T14:12:23.915Z,23.22
2019-04-26T14:14:49.808Z,22.43
2019-04-26T14:17:15.788Z,22.52
2019-04-26T14:19:41.666Z,23.21
2019-04-26T14:22:08.248Z,23.16
2019-04-26T14:24:38.865Z,22.72
2019-04-26T14:27:15.065Z,22.68
2019-04-26T14:29:38.382Z,23.04
2019-04-26T14:32:04.434Z,22.98
2019-04-26T14:34:30.642Z,22.59
2019-04-26T14:37:06.366Z,22.64
2019-04-26T14:39:38.420Z,22.54
2019-04-26T14:41:52.644Z,22.89
2019-04-26T14:44:19.776Z,22.80
2019-04-26T14:46:48.940Z,23.22
2019-04-26T14:49:13.279Z,23.35
2019-04-26T14:51:40.672Z,23.21
2019-04-26T14:54:07.382Z,23.38
2019-04-26T14:56:34.369Z,23.80
2019-04-26T14:59:01.836Z,23.94
2019-04-26T15:01:32.234Z,23.65
2019-04-26T15:04:15.854Z,23.92
2019-04-26T15:06:43.590Z,24.02
2019-04-26T15:09:18.007Z,24.28
2019-04-26T15:11:37.988Z,24.35
2019-04-26T15:14:04.601Z,24.02
2019-04-26T15:16:30.698Z,23.93
2019-04-26T15:18:56.553Z,24.21
2019-04-26T15:21:22.902Z,24.06
2019-04-26T15:23:48.703Z,24.12
2019-04-26T15:26:14.652Z,23.93
2019-04-26T15:28:43.697Z,24.14
2019-04-26T15:31:08.349Z,24.19
2019-04-26T15:33:35.955Z,24.40
2019-04-26T15:36:02.332Z,24.66
2019-04-26T15:38:34.845Z,24.76
2019-04-26T15:40:59.379Z,24.77
2019-04-26T15:43:29.955Z,24.72
2019-04-26T15:46:03.579Z,24.44
2019-04-26T15:48:50.390Z,24.74
2019-04-26T15:51:20.075Z,24.93
2019-04-26T15:53:48.862Z,25.01
2019-04-26T15:56:16.812Z,24.99
2019-04-26T15:58:45.841Z,24.89
2019-04-26T16:01:10.848Z,25.12
2019-04-26T16:03:40.811Z,25.16
2019-04-26T16:06:07.135Z,25.20
2019-04-26T16:08:33.960Z,25.40
2019-04-26T16:11:00.108Z,25.57
2019-04-26T16:13:26.290Z,25.70
2019-04-26T16:15:52.132Z,25.85
2019-04-26T16:18:19.209Z,25.90
2019-04-26T16:20:45.094Z,25.90
2019-04-26T16:23:13.343Z,26.12
2019-04-26T16:25:39.341Z,26.24
2019-04-26T16:28:23.535Z,26.08
2019-04-26T16:31:10.964Z,26.38
2019-04-26T16:33:40.012Z,26.50
2019-04-26T16:36:06.385Z,26.52
2019-04-26T16:38:33.666Z,26.55
2019-04-26T16:40:59.674Z,26.61
2019-04-26T16:43:36.628Z,26.60
2019-04-26T16:45:54.248Z,26.73
2019-04-26T16:48:22.255Z,26.84
2019-04-26T16:50:48.143Z,26.96
2019-04-26T16:53:36.454Z,27.04
2019-04-26T16:55:48.898Z,27.20
2019-04-26T16:58:09.475Z,27.23
2019-04-26T17:00:50.774Z,27.32
2019-04-26T17:03:07.838Z,27.35
2019-04-26T17:05:47.669Z,27.41
2019-04-26T17:08:05.047Z,27.51
2019-04-26T17:10:27.307Z,27.55
2019-04-26T17:12:54.381Z,27.61
2019-04-26T17:15:20.939Z,27.68
2019-04-26T17:17:50.439Z,27.71
2019-04-26T17:20:15.820Z,27.75
2019-04-26T17:22:59.491Z,27.81
2019-04-26T17:25:27.789Z,27.85
2019-04-26T17:27:53.655Z,27.90
2019-04-26T17:30:21.468Z,27.96
2019-04-26T17:32:51.117Z,28.00
2019-04-26T17:35:15.215Z,28.09
2019-04-26T17:37:41.215Z,28.13
2019-04-26T17:40:08.788Z,28.19
2019-04-26T17:42:36.464Z,28.24
2019-04-26T17:45:06.832Z,28.29
2019-04-26T17:47:34.696Z,28.34
2019-04-26T17:50:04.587Z,28.37
2019-04-26T17:52:31.244Z,28.42
2019-04-26T17:54:54.944Z,28.46
2019-04-26T17:57:32.120Z,28.52
2019-04-26T17:59:50.947Z,28.56
2019-04-26T18:02:31.517Z,28.67
2019-04-26T18:04:44.459Z,28.74
2019-04-26T18:07:36.403Z,28.82
2019-04-26T18:09:43.916Z,28.87
2019-04-26T18:12:06.354Z,28.98
2019-04-26T18:14:32.344Z,29.03
2019-04-26T18:17:01.329Z,29.06
2019-04-26T18:19:44.503Z,29.14
2019-04-26T18:22:15.194Z,29.22
2019-04-26T18:24:41.195Z,29.30
2019-04-26T18:27:07.199Z,29.40
2019-04-26T18:29:33.667Z,29.50
2019-04-26T18:32:03.473Z,29.58
2019-04-26T18:34:30.479Z,29.62
2019-04-26T18:36:54.983Z,29.71
2019-04-26T18:39:22.822Z,29.79
2019-04-26T18:41:48.678Z,29.83
2019-04-26T18:44:14.608Z,29.85
2019-04-26T18:46:48.478Z,29.98
2019-04-26T18:49:18.207Z,30.09
2019-04-26T18:51:48.120Z,30.15
2019-04-26T18:54:21.021Z,30.18
2019-04-26T18:56:53.316Z,30.34
2019-04-26T18:59:19.337Z,30.48
2019-04-26T19:01:45.408Z,30.56
2019-04-26T19:04:14.927Z,30.63
2019-04-26T19:06:42.363Z,30.69
2019-04-26T19:09:07.392Z,30.74
2019-04-26T19:11:35.550Z,30.86
2019-04-26T19:14:17.704Z,30.97
2019-04-26T19:16:46.435Z,31.09
2019-04-26T19:19:22.617Z,31.20
2019-04-26T19:21:47.490Z,31.28
2019-04-26T19:24:19.411Z,31.28
2019-04-26T19:26:44.130Z,31.30
2019-04-26T19:29:16.273Z,31.39
2019-04-26T19:31:36.780Z,31.40
2019-04-26T19:34:02.762Z,31.48
2019-04-26T19:36:29.340Z,31.55
2019-04-26T19:38:55.269Z,31.67
2019-04-26T19:41:21.638Z,31.62
2019-04-26T19:43:48.670Z,31.66
2019-04-26T19:46:25.515Z,31.83
2019-04-26T19:49:09.507Z,31.97
2019-04-26T19:51:59.727Z,32.22
2019-04-26T19:54:41.844Z,32.24
2019-04-26T19:57:15.462Z,32.14
2019-04-26T19:59:42.277Z,32.30
2019-04-26T20:02:08.490Z,32.30
2019-04-26T20:04:34.493Z,32.48
2019-04-26T20:07:01.367Z,32.56
2019-04-26T20:09:27.536Z,32.53
2019-04-26T20:11:58.055Z,32.72
2019-04-26T20:14:25.797Z,32.73
2019-04-26T20:16:48.965Z,32.68
2019-04-26T20:19:17.747Z,32.81
2019-04-26T20:21:45.473Z,32.84
2019-04-26T20:24:10.183Z,32.92
2019-04-26T20:26:37.459Z,32.87
2019-04-26T20:29:06.228Z,32.98
2019-04-26T20:31:37.618Z,32.96
2019-04-26T20:34:05.669Z,33.00
2019-04-26T20:36:37.188Z,33.17
2019-04-26T20:38:59.401Z,33.18
2019-04-26T20:41:25.325Z,33.32
2019-04-26T20:44:04.494Z,33.33
2019-04-26T20:46:18.921Z,33.49
2019-04-26T20:48:44.797Z,33.42
2019-04-26T20:51:11.906Z,33.53
2019-04-26T20:53:41.136Z,33.42
2019-04-26T20:56:09.943Z,33.58
2019-04-26T20:58:33.500Z,33.60
2019-04-26T21:01:01.366Z,33.56
2019-04-26T21:03:27.923Z,33.59
2019-04-26T21:05:59.139Z,33.60
2019-04-26T21:08:25.747Z,33.72
2019-04-26T21:10:49.323Z,33.78
2019-04-26T21:13:15.197Z,33.89
2019-04-26T21:15:52.637Z,34.04
2019-04-26T21:18:08.856Z,34.21
2019-04-26T21:20:36.437Z,34.30
2019-04-26T21:23:03.683Z,34.39
2019-04-26T21:25:32.463Z,34.61
2019-04-26T21:28:02.522Z,34.80
2019-04-26T21:30:49.019Z,34.76
2019-04-26T21:33:16.832Z,34.71
2019-04-26T21:35:53.270Z,34.58
2019-04-26T21:38:21.129Z,34.63
2019-04-26T21:41:04.336Z,34.55
2019-04-26T21:43:29.599Z,34.67
2019-04-26T21:46:07.274Z,34.71
2019-04-26T21:48:24.276Z,34.83
2019-04-26T21:50:50.267Z,34.95
2019-04-26T21:53:16.221Z,34.85
2019-04-26T21:55:43.477Z,34.83
2019-04-26T21:58:09.420Z,34.99
2019-04-26T22:00:48.974Z,35.03
2019-04-26T22:03:16.156Z,35.07
2019-04-26T22:05:43.926Z,35.02
2019-04-26T22:08:09.923Z,35.34
2019-04-26T22:10:39.627Z,35.24
2019-04-26T22:13:07.371Z,35.47
2019-04-26T22:15:37.530Z,35.75
2019-04-26T22:18:04.863Z,36.05
2019-04-26T22:20:35.495Z,36.09
2019-04-26T22:23:16.366Z,35.82
2019-04-26T22:25:41.744Z,35.95
2019-04-26T22:28:07.838Z,35.98
2019-04-26T22:30:33.789Z,35.91
2019-04-26T22:32:59.786Z,35.78
2019-04-26T22:35:25.727Z,35.85
2019-04-26T22:37:51.581Z,35.79
2019-04-26T22:40:19.864Z,35.74
2019-04-26T22:42:47.121Z,35.74
2019-04-26T22:45:14.986Z,35.81
2019-04-26T22:48:00.872Z,35.80
2019-04-26T22:50:26.742Z,35.95
2019-04-26T22:52:54.636Z,36.04
2019-04-26T22:55:24.186Z,36.15
2019-04-26T22:57:49.532Z,36.37
2019-04-26T23:00:20.137Z,36.17
2019-04-26T23:02:45.677Z,36.23
2019-04-26T23:05:11.761Z,36.27
2019-04-26T23:07:37.742Z,36.16
2019-04-26T23:10:05.918Z,36.22
2019-04-26T23:12:50.468Z,36.10
2019-04-26T23:15:18.411Z,36.26
2019-04-26T23:17:54.985Z,36.11
2019-04-26T23:20:29.084Z,36.10
2019-04-26T23:22:56.134Z,36.26
2019-04-26T23:25:23.727Z,36.16
2019-04-26T23:27:50.491Z,36.19
2019-04-26T23:30:17.524Z,36.42
2019-04-26T23:32:43.532Z,36.88
2019-04-26T23:35:09.596Z,36.73
2019-04-26T23:37:35.586Z,36.52
2019-04-26T23:40:01.547Z,36.50
2019-04-26T23:42:27.539Z,36.49
2019-04-26T23:44:53.523Z,36.56
2019-04-26T23:47:23.011Z,36.68
2019-04-26T23:49:49.423Z,36.85
2019-04-26T23:52:18.616Z,36.77
2019-04-26T23:54:42.500Z,36.92
2019-04-26T23:57:08.492Z,37.02
2019-04-26T23:59:34.412Z,37.32
